Time;durP1;ratioP1;P1;durP2;ratioP2;P2;SDS_P1;SDS_P2;PMS_P1;PMS_P2;Temp;Humidity;BMP_temperature;BMP_pressure;BME280_temperature;BME280_humidity;BME280_pressure;Samples;Min_cycle;Max_cycle;Signal;HPM_P1;HPM_P2
2023/04/20 05:02:33;;;;;;;;;1.00;0.00;;;;;13.66;38.91;68607.88;4872671;28;45582;-83
2023/04/20 05:04:59;;;;;;;;;1.00;1.00;;;;;13.12;38.95;68377.66;4877628;28;45439;-84
2023/04/20 05:07:24;;;;;;;;;3.00;2.00;;;;;13.92;39.25;68600.97;4941275;28;48087;-83
2023/04/20 05:09:49;;;;;;;;;2.67;1.00;;;;;13.91;39.13;68602.47;4877040;28;52721;-83
2023/04/20 05:12:14;;;;;;;;;3.00;2.00;;;;;13.67;39.00;68534.69;4876799;28;45705;-83
2023/04/20 05:14:40;;;;;;;;;1.67;1.67;;;;;13.81;38.87;68726.09;4878628;28;45577;-83
2023/04/20 05:17:05;;;;;;;;;1.00;1.00;;;;;13.87;38.81;68586.47;4878164;28;46059;-83
2023/04/20 05:19:30;;;;;;;;;1.00;1.00;;;;;13.87;38.91;68575.84;4876061;28;45479;-84
2023/04/20 05:21:56;;;;;;;;;1.00;1.00;;;;;13.68;38.99;68569.81;4878572;28;45600;-83
2023/04/20 05:24:21;;;;;;;;;1.00;1.00;;;;;13.65;39.13;68564.19;4877451;28;47037;-84
2023/04/20 05:26:46;;;;;;;;;3.00;1.67;;;;;13.86;38.78;68622.50;4878343;28;47014;-84
2023/04/20 05:29:13;;;;;;;;;1.00;1.00;;;;;13.87;39.04;68562.56;4877770;28;58202;-83
2023/04/20 05:31:38;;;;;;;;;1.67;1.67;;;;;13.56;39.31;68566.19;4868370;28;45526;-84
2023/04/20 05:39:29;;;;;;;;;1.33;1.33;;;;;13.76;39.17;68467.13;4967872;28;45737;-86
2023/04/20 05:41:54;;;;;;;;;2.33;2.33;;;;;13.64;39.13;68581.00;4976378;28;45406;-76
2023/04/20 05:44:19;;;;;;;;;2.00;2.00;;;;;13.42;39.18;68536.88;4975960;28;45636;-81
2023/04/20 05:46:45;;;;;;;;;2.00;2.00;;;;;13.83;39.38;68539.19;4972180;28;46204;-80
2023/04/20 05:49:10;;;;;;;;;2.00;2.00;;;;;13.81;39.48;68617.13;4974300;28;45499;-80
2023/04/20 05:51:36;;;;;;;;;2.67;2.33;;;;;13.82;39.18;68575.81;4974549;28;45460;-80
2023/04/20 05:56:36;;;;;;;;;2.33;2.33;;;;;13.67;39.48;68558.00;5275511;22;45415;-82
2023/04/20 05:59:03;;;;;;;;;3.00;3.00;;;;;13.47;39.48;68587.97;5000208;28;45464;-82
2023/04/20 06:01:28;;;;;;;;;1.00;1.00;;;;;13.47;39.56;68535.44;4998553;28;45482;-82
2023/04/20 06:03:54;;;;;;;;;2.00;2.00;;;;;13.82;39.46;68599.75;5003996;28;45519;-82
2023/04/20 06:06:19;;;;;;;;;5.00;3.00;;;;;13.77;39.47;68582.59;5006240;28;46248;-83
2023/04/20 06:08:44;;;;;;;;;5.00;3.00;;;;;13.56;39.47;68568.84;5831147;22;45503;-82
2023/04/20 06:11:10;;;;;;;;;3.00;2.00;;;;;13.86;39.58;68593.25;5009675;28;45821;-83
2023/04/20 06:13:35;;;;;;;;;2.67;2.67;;;;;13.53;39.41;68727.91;4991368;28;45839;-83
2023/04/20 06:18:29;;;;;;;;;2.00;2.00;;;;;13.40;39.68;68515.91;5482709;22;72011;-82
2023/04/20 06:23:46;;;;;;;;;0.00;0.00;;;;;13.83;39.32;68582.31;5328089;22;45352;-82
2023/04/20 06:26:11;;;;;;;;;3.67;2.67;;;;;13.65;39.68;68526.38;5007519;28;46464;-83
2023/04/20 06:29:14;;;;;;;;;4.00;4.00;;;;;12.91;39.35;68427.06;5010424;28;45836;-85
2023/04/20 06:43:26;;;;;;;;;4.00;2.00;;;;;12.92;39.30;68441.50;5144975;22;67860;-86
2023/04/20 06:49:14;;;;;;;;;2.67;2.33;;;;;13.12;39.54;68597.97;5578621;22;45654;-87
2023/04/20 06:51:47;;;;;;;;;3.00;3.00;;;;;13.28;39.56;68518.19;5004338;28;45411;-86
2023/04/20 06:54:13;;;;;;;;;3.00;2.00;;;;;13.51;39.75;68487.06;4996108;28;45592;-86
2023/04/20 07:02:57;;;;;;;;;3.00;3.00;;;;;14.25;39.56;68636.34;4979644;28;45936;-90
2023/04/20 07:05:35;;;;;;;;;5.67;3.00;;;;;14.28;39.84;68524.97;4966621;28;45908;-89
2023/04/20 07:08:05;;;;;;;;;4.00;2.33;;;;;13.99;39.58;68549.63;4963291;23;45636;-88
2023/04/20 07:10:39;;;;;;;;;2.00;1.33;;;;;13.47;39.58;68558.75;4995167;28;46834;-95
2023/04/20 07:13:11;;;;;;;;;3.00;3.00;;;;;12.81;39.46;68543.16;4975669;28;45953;-89
2023/04/20 07:19:24;;;;;;;;;2.33;2.33;;;;;13.09;39.82;68608.28;5557207;23;45444;-89
2023/04/20 07:22:15;;;;;;;;;3.00;3.00;;;;;14.42;39.93;68655.38;4974208;28;46929;-88
2023/04/20 07:27:47;;;;;;;;;4.00;4.00;;;;;13.98;39.73;68585.66;5000229;22;45706;-89
2023/04/20 07:30:22;;;;;;;;;4.67;4.67;;;;;14.05;39.88;68714.22;4955533;28;45483;-89
2023/04/20 07:33:19;;;;;;;;;2.00;2.00;;;;;13.46;39.89;68571.44;4937332;28;48008;-87
2023/04/20 07:35:45;;;;;;;;;1.33;1.33;;;;;14.50;39.90;68659.56;4941444;28;45430;-86
2023/04/20 07:39:06;;;;;;;;;3.00;3.00;;;;;14.58;40.19;68695.72;4959673;28;45929;-87
2023/04/20 07:41:32;;;;;;;;;2.67;2.67;;;;;13.78;40.02;68530.59;4959993;28;45652;-88
2023/04/20 07:43:57;;;;;;;;;3.00;3.00;;;;;14.41;39.75;68678.13;4958832;28;46242;-87
2023/04/20 07:46:22;;;;;;;;;3.33;3.33;;;;;13.64;40.06;68615.53;4959205;28;52391;-88
2023/04/20 07:49:00;;;;;;;;;3.67;3.00;;;;;13.43;40.13;68631.59;4941610;28;46352;-88
2023/04/20 07:51:29;;;;;;;;;4.00;2.00;;;;;14.05;39.74;68671.69;4959054;28;45619;-89
2023/04/20 07:54:05;;;;;;;;;4.33;3.00;;;;;13.70;40.05;68599.34;4959244;28;46567;-89
2023/04/20 07:56:34;;;;;;;;;4.00;4.00;;;;;14.38;40.16;68810.25;4937392;28;45719;-93
2023/04/20 07:58:59;;;;;;;;;2.00;2.00;;;;;14.48;40.06;68660.44;4945239;28;45575;-91
2023/04/20 08:01:25;;;;;;;;;2.33;2.33;;;;;14.34;40.49;68830.00;4954805;28;45926;-91
2023/04/20 08:04:15;;;;;;;;;3.00;3.00;;;;;14.92;40.30;68734.97;4958619;28;46274;-88
2023/04/20 08:06:40;;;;;;;;;2.00;2.00;;;;;13.80;40.09;68567.53;4958054;28;45519;-82
2023/04/20 08:09:06;;;;;;;;;2.67;2.00;;;;;14.33;40.28;68762.31;4957760;28;45813;-82
2023/04/20 08:11:31;;;;;;;;;2.00;1.67;;;;;14.79;40.21;68704.13;4960434;28;45584;-81
2023/04/20 08:14:34;;;;;;;;;2.00;2.00;;;;;15.12;40.24;68744.84;4960583;28;46814;-81
2023/04/20 08:17:00;;;;;;;;;3.00;3.00;;;;;15.17;40.21;68761.44;4957864;28;45345;-81
2023/04/20 08:19:25;;;;;;;;;2.00;2.00;;;;;15.12;40.18;68748.09;4957493;28;47289;-82
2023/04/20 08:21:51;;;;;;;;;3.00;3.00;;;;;15.28;40.13;68803.25;4964368;28;45585;-81
2023/04/20 08:24:16;;;;;;;;;2.00;2.00;;;;;15.33;39.88;68787.88;4965460;28;47189;-81
2023/04/20 08:26:42;;;;;;;;;3.00;3.00;;;;;15.38;39.87;68815.16;4960457;28;45425;-81
2023/04/20 08:29:07;;;;;;;;;3.00;3.00;;;;;15.46;40.04;68813.44;4971871;28;45533;-81
2023/04/20 08:31:33;;;;;;;;;3.00;3.00;;;;;15.31;39.78;68764.19;4961024;28;45445;-81
2023/04/20 08:33:58;;;;;;;;;3.00;2.00;;;;;15.59;39.82;68786.25;4975833;28;45641;-81
2023/04/20 08:36:23;;;;;;;;;4.00;4.00;;;;;15.45;39.84;68839.47;4958796;28;45417;-80
2023/04/20 08:39:04;;;;;;;;;2.00;2.00;;;;;15.53;39.99;68845.75;4978361;28;45995;-78
2023/04/20 08:41:30;;;;;;;;;5.33;3.00;;;;;15.74;39.89;68910.19;4977967;28;45412;-80
2023/04/20 08:43:56;;;;;;;;;4.00;3.67;;;;;15.88;40.25;68878.88;4958489;28;45589;-81
2023/04/20 08:46:22;;;;;;;;;4.00;2.00;;;;;15.97;39.88;68900.25;4976109;28;45605;-81
2023/04/20 08:48:49;;;;;;;;;3.00;2.67;;;;;16.05;39.91;68962.53;4957996;28;45571;-80
2023/04/20 08:51:18;;;;;;;;;2.67;2.67;;;;;16.12;40.06;68922.88;4958706;28;45278;-80
2023/04/20 08:53:43;;;;;;;;;4.67;2.33;;;;;16.16;39.71;68965.00;4957590;28;45815;-80
2023/04/20 08:56:09;;;;;;;;;3.00;2.00;;;;;16.33;39.70;68938.72;4962192;28;45442;-81
2023/04/20 08:58:34;;;;;;;;;3.33;2.33;;;;;16.43;39.90;68966.63;4973823;28;45396;-81
2023/04/20 09:01:00;;;;;;;;;2.33;2.33;;;;;16.55;39.15;68950.97;4970817;28;45471;-80
2023/04/20 09:03:39;;;;;;;;;3.67;2.67;;;;;16.40;39.36;68998.34;4974115;28;45539;-80
2023/04/20 09:06:12;;;;;;;;;4.33;3.00;;;;;16.65;39.35;68923.47;4963648;28;45452;-84
2023/04/20 09:08:39;;;;;;;;;3.00;3.00;;;;;16.46;38.54;69010.25;4961108;22;45583;-82
2023/04/20 09:11:06;;;;;;;;;0.00;0.00;;;;;17.35;38.77;69129.53;4969917;28;46505;-82
2023/04/20 09:13:31;;;;;;;;;3.33;3.00;;;;;17.61;38.75;69063.75;4982773;23;45781;-81
2023/04/20 09:16:11;;;;;;;;;2.00;2.00;;;;;17.91;38.61;69152.44;4976478;28;45846;-83
2023/04/20 09:18:37;;;;;;;;;2.33;2.00;;;;;17.81;38.10;69169.94;4977104;28;45528;-84
2023/04/20 09:21:10;;;;;;;;;2.33;2.33;;;;;17.86;37.64;69131.06;4967713;28;45485;-83
2023/04/20 09:27:12;;;;;;;;;4.00;2.33;;;;;17.59;37.28;69128.22;5029684;23;45672;-87
2023/04/20 09:30:00;;;;;;;;;2.33;1.00;;;;;18.74;37.85;69290.00;5003597;23;45547;-85
2023/04/20 09:32:31;;;;;;;;;2.67;2.67;;;;;18.84;37.51;69301.38;4962596;28;45437;-85
2023/04/20 09:34:56;;;;;;;;;3.00;3.00;;;;;18.30;37.12;69197.84;4968386;28;46818;-85
2023/04/20 09:37:21;;;;;;;;;2.67;2.67;;;;;18.62;36.97;69245.59;4968898;28;45469;-90
2023/04/20 09:39:48;;;;;;;;;3.00;3.00;;;;;18.68;37.02;69349.19;4943234;28;45669;-88
2023/04/20 09:42:20;;;;;;;;;3.00;3.00;;;;;19.63;36.16;69368.75;4986909;28;45564;-86
2023/04/20 09:44:48;;;;;;;;;2.00;2.00;;;;;19.63;36.58;69433.13;4969280;28;47264;-85
2023/04/20 09:47:24;;;;;;;;;2.00;2.00;;;;;20.42;36.11;69641.50;4971461;28;45507;-89
2023/04/20 09:49:51;;;;;;;;;3.00;3.00;;;;;20.57;35.89;69543.97;4972726;28;45482;-94
2023/04/20 09:52:17;;;;;;;;;3.00;2.33;;;;;20.96;35.52;69686.31;4951578;28;45719;-90
2023/04/20 09:55:05;;;;;;;;;2.00;2.00;;;;;20.87;34.87;69713.13;4969370;28;46791;-86
2023/04/20 09:57:31;;;;;;;;;2.67;2.67;;;;;21.49;34.92;69923.69;4971156;28;45852;-85
2023/04/20 09:59:58;;;;;;;;;2.33;2.33;;;;;22.23;35.11;69883.75;4970625;28;45583;-85
2023/04/20 10:02:24;;;;;;;;;3.00;3.00;;;;;21.65;34.53;69852.91;4964367;28;45508;-84
2023/04/20 10:04:57;;;;;;;;;4.00;4.00;;;;;22.67;33.83;69986.09;4975717;28;45776;-89
2023/04/20 10:07:27;;;;;;;;;2.00;2.00;;;;;22.62;34.30;70058.88;4965482;28;45588;-92
2023/04/20 10:10:02;;;;;;;;;4.00;3.00;;;;;22.53;34.17;70042.63;4954078;28;45392;-90
2023/04/20 10:12:27;;;;;;;;;0.67;0.00;;;;;22.27;33.50;69947.25;4952203;28;45846;-93
2023/04/20 10:14:56;;;;;;;;;3.00;3.00;;;;;22.07;33.79;69907.59;5000063;28;45374;-92
2023/04/20 10:17:32;;;;;;;;;3.67;2.00;;;;;22.00;34.13;69913.22;4996966;28;45412;-94
2023/04/20 10:19:57;;;;;;;;;5.33;5.33;;;;;21.17;33.03;69721.66;4996029;28;45502;-90
2023/04/20 10:22:33;;;;;;;;;3.67;2.33;;;;;21.03;33.66;69724.28;4995971;28;45950;-91
2023/04/20 10:25:01;;;;;;;;;2.00;2.00;;;;;20.98;33.37;69640.31;4986963;28;46289;-96
2023/04/20 10:27:27;;;;;;;;;2.00;2.00;;;;;20.48;34.22;69623.91;4960843;28;45644;-92
2023/04/20 10:30:22;;;;;;;;;3.00;3.00;;;;;20.13;33.91;69532.69;4983976;28;45588;-94
2023/04/20 10:32:48;;;;;;;;;3.33;2.33;;;;;19.63;33.85;69452.50;4979650;28;45370;-95
2023/04/20 10:35:16;;;;;;;;;2.00;2.00;;;;;19.73;33.99;69652.34;5006856;28;45339;-96
2023/04/20 10:37:49;;;;;;;;;3.67;2.00;;;;;19.23;34.46;69381.69;5001202;28;45444;-95
2023/04/20 10:40:15;;;;;;;;;1.67;1.67;;;;;18.34;34.36;69406.72;4994306;28;45361;-96
2023/04/20 10:43:22;;;;;;;;;4.00;3.00;;;;;18.35;34.46;69239.22;4996928;28;45507;-95
2023/04/20 10:45:49;;;;;;;;;3.00;3.00;;;;;18.25;34.25;69395.34;4995874;28;47053;-94
2023/04/20 10:48:22;;;;;;;;;3.00;3.00;;;;;19.04;34.45;69332.16;4989957;28;44862;-96
2023/04/20 10:50:48;;;;;;;;;3.00;3.00;;;;;18.40;34.63;69303.50;5000886;28;45444;-93
2023/04/20 10:53:22;;;;;;;;;2.33;2.33;;;;;18.50;34.92;69202.41;4964026;28;45489;-95
2023/04/20 10:55:57;;;;;;;;;2.67;2.67;;;;;18.22;35.09;69201.69;4979203;28;46492;-94
2023/04/20 10:58:23;;;;;;;;;3.67;3.67;;;;;17.26;35.14;69162.16;5000160;28;45498;-94
2023/04/20 11:01:05;;;;;;;;;3.00;3.00;;;;;18.48;35.22;69248.22;5001043;28;45352;-96
2023/04/20 11:03:33;;;;;;;;;4.33;4.33;;;;;17.90;35.28;69183.97;4992566;28;45606;-94
2023/04/20 11:06:01;;;;;;;;;4.00;4.00;;;;;17.78;35.46;69262.66;4997169;28;45573;-95
2023/04/20 11:08:40;;;;;;;;;43.67;36.33;;;;;16.67;35.72;69128.19;4999019;28;45533;-93
2023/04/20 11:11:24;;;;;;;;;8.33;8.33;;;;;16.67;35.76;68984.59;4999293;28;45427;-94
2023/04/20 11:13:50;;;;;;;;;4.00;3.00;;;;;18.01;35.99;69225.94;4982045;28;45322;-93
2023/04/20 11:16:17;;;;;;;;;5.00;5.00;;;;;17.18;36.23;69225.34;4986090;28;47251;-95
2023/04/20 11:18:54;;;;;;;;;4.00;4.00;;;;;17.11;36.16;69085.47;4985021;28;45507;-91
2023/04/20 11:21:21;;;;;;;;;3.67;3.67;;;;;16.97;36.02;69050.63;4999967;28;45476;-95
2023/04/20 11:23:50;;;;;;;;;3.33;3.33;;;;;17.52;36.32;69278.78;5017341;28;45503;-96
2023/04/20 11:26:20;;;;;;;;;3.67;3.67;;;;;16.94;36.11;69045.00;4994318;28;47377;-96
2023/04/20 11:28:55;;;;;;;;;6.33;5.00;;;;;16.54;36.54;69185.31;4962303;28;45674;-94
2023/04/20 11:31:21;;;;;;;;;6.00;3.00;;;;;16.75;36.57;69017.56;5006044;28;45325;-94
2023/04/20 11:34:02;;;;;;;;;4.00;4.00;;;;;16.17;36.50;69016.88;4994131;28;45362;-95
2023/04/20 11:36:28;;;;;;;;;4.00;4.00;;;;;16.16;36.60;68991.69;4984511;28;45675;-94
2023/04/20 11:38:54;;;;;;;;;5.67;4.33;;;;;16.98;36.45;69043.84;4997420;28;45401;-94
2023/04/20 11:41:20;;;;;;;;;5.33;5.33;;;;;16.97;36.37;69016.50;5010218;28;45478;-96
2023/04/20 11:43:47;;;;;;;;;5.33;5.33;;;;;16.98;36.85;69097.84;4988193;28;45319;-94
2023/04/20 11:46:21;;;;;;;;;2.00;2.00;;;;;16.73;36.67;69031.19;5000159;28;46244;-93
2023/04/20 11:48:47;;;;;;;;;7.33;5.00;;;;;17.26;36.77;69018.44;5003168;28;45421;-93
2023/04/20 11:51:13;;;;;;;;;6.33;5.00;;;;;17.35;36.84;69122.13;5002737;28;45448;-92
2023/04/20 11:53:41;;;;;;;;;4.00;4.00;;;;;16.81;36.98;69002.75;4983439;28;45461;-95
2023/04/20 11:56:07;;;;;;;;;5.33;4.00;;;;;16.21;37.25;68962.34;4999748;28;45593;-93
2023/04/20 11:58:33;;;;;;;;;5.00;4.00;;;;;17.36;37.47;69109.94;5000523;28;45493;-94
2023/04/20 12:00:59;;;;;;;;;4.33;4.33;;;;;16.57;37.01;69031.38;4999778;28;45456;-92
2023/04/20 12:03:25;;;;;;;;;3.33;3.33;;;;;17.44;37.46;69068.09;4999882;28;45440;-94
2023/04/20 12:05:50;;;;;;;;;4.00;4.00;;;;;17.70;37.35;69206.13;4999323;28;45645;-92
2023/04/20 12:08:16;;;;;;;;;4.00;4.00;;;;;17.82;37.10;69219.31;4999090;28;45610;-92
2023/04/20 12:10:41;;;;;;;;;4.00;3.00;;;;;18.02;37.14;69347.56;4998313;28;45312;-91
2023/04/20 12:13:06;;;;;;;;;5.00;3.00;;;;;18.51;37.31;69313.38;4981510;28;45631;-94
2023/04/20 12:15:32;;;;;;;;;3.67;3.00;;;;;18.30;36.63;69363.84;4998633;28;46590;-93
2023/04/20 12:17:57;;;;;;;;;5.33;5.00;;;;;18.44;36.45;69305.00;4999402;28;45414;-92
2023/04/20 12:20:23;;;;;;;;;12.33;10.00;;;;;18.63;36.79;69329.81;4997374;28;45503;-92
2023/04/20 12:22:48;;;;;;;;;19.33;13.33;;;;;18.75;36.32;69379.63;4999911;28;45518;-94
2023/04/20 12:25:13;;;;;;;;;3.67;3.67;;;;;18.39;36.36;69333.84;4997930;28;45745;-92
2023/04/20 12:27:39;;;;;;;;;4.00;4.00;;;;;18.69;36.32;69305.47;4999526;28;45796;-92
2023/04/20 12:30:05;;;;;;;;;5.33;4.00;;;;;18.53;36.84;69297.03;5000189;28;45455;-92
2023/04/20 12:32:30;;;;;;;;;4.67;4.67;;;;;18.34;36.78;69427.53;4984601;28;45460;-93
2023/04/20 12:34:56;;;;;;;;;5.00;5.00;;;;;17.95;37.14;69228.88;4996875;28;55622;-92
2023/04/20 12:37:21;;;;;;;;;5.00;4.00;;;;;18.38;36.99;69260.34;4998906;28;45539;-92
2023/04/20 12:39:46;;;;;;;;;6.00;5.00;;;;;17.93;37.30;69296.66;4998661;28;45447;-93
2023/04/20 12:42:12;;;;;;;;;4.67;4.67;;;;;18.28;36.95;69267.72;4998868;28;45503;-92
2023/04/20 12:44:37;;;;;;;;;7.33;6.67;;;;;18.06;36.88;69276.81;4980664;28;47157;-94
2023/04/20 12:47:02;;;;;;;;;5.33;4.33;;;;;18.35;37.18;69219.88;4998482;28;45459;-94
2023/04/20 12:49:27;;;;;;;;;11.00;8.33;;;;;18.38;37.02;69415.66;4998092;28;45517;-92
2023/04/20 12:51:53;;;;;;;;;4.67;4.67;;;;;18.39;37.35;69323.13;4998666;28;45522;-94
2023/04/20 12:54:18;;;;;;;;;5.67;5.67;;;;;18.18;37.08;69282.56;4998172;28;46077;-93
2023/04/20 12:56:44;;;;;;;;;6.00;6.00;;;;;18.31;37.16;69296.03;4915884;28;45539;-93
2023/04/20 12:59:10;;;;;;;;;8.00;4.67;;;;;18.50;37.05;69331.53;4960219;28;46101;-92
2023/04/20 13:01:35;;;;;;;;;6.00;6.00;;;;;18.10;37.24;69278.94;4997726;28;45575;-93
2023/04/20 13:04:00;;;;;;;;;5.33;5.33;;;;;18.42;37.02;69283.88;4997534;28;45702;-92
2023/04/20 13:06:26;;;;;;;;;7.00;5.33;;;;;17.76;37.46;69150.59;4997463;28;45906;-93
2023/04/20 13:08:52;;;;;;;;;5.67;5.67;;;;;18.28;37.12;69391.47;4997785;28;45682;-94
2023/04/20 13:11:17;;;;;;;;;5.00;5.00;;;;;18.14;37.37;69262.28;4980611;28;45476;-94
2023/04/20 13:13:42;;;;;;;;;5.00;5.00;;;;;18.31;37.86;69295.44;4998827;28;45449;-94
2023/04/20 13:16:08;;;;;;;;;5.00;5.00;;;;;18.39;37.86;69326.41;5004177;28;45373;-91
2023/04/20 13:18:33;;;;;;;;;5.00;5.00;;;;;18.45;37.61;69237.19;5002096;28;45417;-92
2023/04/20 13:20:59;;;;;;;;;5.00;5.00;;;;;18.26;37.35;69233.22;5000846;28;45558;-93
2023/04/20 13:23:24;;;;;;;;;6.33;5.00;;;;;18.00;37.44;69305.03;4984548;28;47092;-94
2023/04/20 13:25:51;;;;;;;;;7.00;7.00;;;;;18.18;37.67;69259.06;5003882;28;45414;-92
2023/04/20 13:28:16;;;;;;;;;12.33;11.33;;;;;18.03;37.59;69241.72;5003138;28;45538;-90
2023/04/20 13:30:42;;;;;;;;;5.00;5.00;;;;;18.28;38.01;69310.56;5003864;28;45544;-93
2023/04/20 13:33:08;;;;;;;;;4.00;4.00;;;;;18.29;37.47;69280.25;5002756;28;46268;-94
2023/04/20 13:35:33;;;;;;;;;5.00;5.00;;;;;17.89;37.94;69208.94;4987402;28;45360;-93
2023/04/20 13:37:58;;;;;;;;;8.00;7.67;;;;;17.99;38.07;69222.97;5004241;28;45445;-93
2023/04/20 13:40:24;;;;;;;;;6.33;5.00;;;;;17.82;37.64;69214.53;5004332;28;45459;-92
2023/04/20 13:42:50;;;;;;;;;7.67;5.33;;;;;17.89;38.18;69228.25;5003081;28;46314;-93
2023/04/20 13:46:00;;;;;;;;;5.00;4.00;;;;;18.04;38.01;69231.63;5001267;28;45436;-92
2023/04/20 13:48:25;;;;;;;;;7.33;5.00;;;;;17.97;38.21;69189.06;4976523;28;45512;-92
2023/04/20 13:50:52;;;;;;;;;7.00;5.67;;;;;17.51;37.88;69069.06;5004324;28;45383;-91
2023/04/20 13:53:18;;;;;;;;;3.00;3.00;;;;;17.49;38.23;69167.66;5004017;28;46422;-92
2023/04/20 13:55:43;;;;;;;;;3.00;3.00;;;;;17.67;37.79;69199.25;4995741;28;45902;-85
2023/04/20 13:58:08;;;;;;;;;5.67;5.67;;;;;17.57;38.23;69200.69;4998945;28;49578;-92
2023/04/20 14:00:40;;;;;;;;;7.67;6.00;;;;;17.84;37.93;69182.16;4996793;28;45457;-88
2023/04/20 14:03:09;;;;;;;;;5.67;5.67;;;;;17.17;38.38;69055.81;5006427;28;46319;-96
2023/04/20 14:05:34;;;;;;;;;5.00;5.00;;;;;17.57;38.28;69257.44;5007941;28;45691;-96
2023/04/20 14:08:00;;;;;;;;;5.00;5.00;;;;;17.22;38.04;69039.78;5002113;28;45646;-93
2023/04/20 14:10:29;;;;;;;;;6.67;6.67;;;;;17.11;38.54;69118.13;4997457;28;45420;-90
2023/04/20 14:12:54;;;;;;;;;9.00;6.00;;;;;17.30;37.95;69098.06;4999117;28;46340;-88
2023/04/20 14:15:20;;;;;;;;;4.00;4.00;;;;;16.93;38.35;69204.09;4997274;28;45481;-91
2023/04/20 14:17:48;;;;;;;;;6.00;6.00;;;;;17.44;38.09;69084.16;4994995;28;45724;-90
2023/04/20 14:20:14;;;;;;;;;8.33;6.67;;;;;17.01;38.81;69111.53;4995921;28;45516;-89
2023/04/20 14:22:39;;;;;;;;;5.67;5.00;;;;;17.61;38.46;69170.72;4995770;28;45652;-90
2023/04/20 14:25:05;;;;;;;;;4.00;4.00;;;;;17.57;38.53;69123.75;4991656;28;45922;-94
2023/04/20 14:27:31;;;;;;;;;6.00;6.00;;;;;17.34;38.65;69174.38;4993607;28;45752;-82
2023/04/20 14:29:56;;;;;;;;;3.00;3.00;;;;;17.59;38.70;69198.31;4994486;28;45322;-89
2023/04/20 14:32:24;;;;;;;;;3.00;3.00;;;;;17.60;38.19;69126.72;4973992;28;46295;-89
2023/04/20 14:34:50;;;;;;;;;5.33;4.67;;;;;17.60;38.31;69172.19;4995264;28;45388;-87
2023/04/20 14:40:47;;;;;;;;;3.67;3.67;;;;;17.11;38.36;69075.34;4962418;23;46003;-90
2023/04/20 14:43:12;;;;;;;;;5.00;5.00;;;;;17.25;38.41;69174.31;5015057;28;46210;-91
2023/04/20 14:45:40;;;;;;;;;3.67;3.67;;;;;17.44;38.83;69108.81;5010411;28;47235;-90
2023/04/20 14:48:05;;;;;;;;;6.67;4.67;;;;;16.54;38.33;69137.25;4990869;28;46014;-87
2023/04/20 14:50:33;;;;;;;;;3.00;3.00;;;;;17.16;38.56;69131.50;4991478;28;45762;-89
2023/04/20 14:53:02;;;;;;;;;5.67;5.67;;;;;16.73;38.35;69052.56;5005196;28;46426;-90
2023/04/20 14:55:29;;;;;;;;;2.00;2.00;;;;;17.64;38.06;69137.44;5000579;28;45388;-89
2023/04/20 14:57:56;;;;;;;;;3.00;3.00;;;;;17.53;38.28;69252.66;4998996;28;45493;-91
2023/04/20 15:00:23;;;;;;;;;4.00;4.00;;;;;17.39;37.86;69161.06;5012083;28;45670;-92
2023/04/20 15:02:49;;;;;;;;;4.00;4.00;;;;;17.68;38.16;69197.78;5013567;28;45615;-90
2023/04/20 15:05:15;;;;;;;;;4.33;4.00;;;;;17.71;37.97;69161.25;4996040;28;47621;-90
2023/04/20 15:07:40;;;;;;;;;3.67;3.67;;;;;17.74;38.20;69167.50;5002487;28;45429;-87
2023/04/20 15:10:06;;;;;;;;;5.00;5.00;;;;;17.77;37.86;69189.81;5003843;28;46903;-88
2023/04/20 15:12:31;;;;;;;;;4.00;4.00;;;;;17.52;38.11;69142.44;5000969;28;45600;-91
2023/04/20 15:14:57;;;;;;;;;6.00;4.00;;;;;17.79;37.96;69159.50;5013512;28;45816;-87
2023/04/20 15:17:25;;;;;;;;;1.67;1.33;;;;;17.76;38.21;69158.59;4999439;28;45692;-90
2023/04/20 15:19:50;;;;;;;;;5.00;5.00;;;;;17.76;38.14;69163.94;5013342;28;45371;-84
2023/04/20 15:22:16;;;;;;;;;5.00;5.00;;;;;17.60;38.10;69174.84;5008271;28;46328;-90
2023/04/20 15:24:41;;;;;;;;;4.00;4.00;;;;;17.72;38.32;69122.31;5004781;28;45318;-89
2023/04/20 15:27:10;;;;;;;;;3.33;3.33;;;;;17.32;38.33;69115.28;5009168;28;45644;-89
2023/04/20 15:29:35;;;;;;;;;5.00;5.00;;;;;17.36;38.68;69222.22;5014596;28;45479;-87
2023/04/20 15:32:00;;;;;;;;;5.00;5.00;;;;;17.64;38.36;69188.25;5010646;28;45419;-86
2023/04/20 15:34:27;;;;;;;;;5.00;5.00;;;;;17.47;38.85;69157.25;5006982;28;46141;-87
2023/04/20 15:36:52;;;;;;;;;4.00;4.00;;;;;17.51;38.77;69106.47;4991698;28;45651;-87
2023/04/20 15:39:18;;;;;;;;;7.67;6.00;;;;;17.30;38.60;69185.66;5011634;28;45653;-88
2023/04/20 15:41:43;;;;;;;;;5.00;4.33;;;;;17.22;38.75;69055.84;5019780;28;45880;-87
2023/04/20 15:44:09;;;;;;;;;5.00;5.00;;;;;17.21;38.81;69241.72;5033441;28;45589;-88
2023/04/20 15:46:36;;;;;;;;;7.33;4.67;;;;;17.15;38.84;69082.81;5014832;28;45366;-89
2023/04/20 15:49:02;;;;;;;;;6.00;6.00;;;;;17.30;38.91;69143.50;5032683;28;45435;-88
2023/04/20 15:51:27;;;;;;;;;8.33;6.33;;;;;17.27;39.11;69121.19;5032195;28;46181;-87
2023/04/20 15:53:53;;;;;;;;;7.33;6.00;;;;;17.26;38.99;69108.72;5031343;28;45371;-87
2023/04/20 15:56:20;;;;;;;;;6.00;5.00;;;;;17.24;38.55;69085.53;5022464;28;45425;-87
2023/04/20 15:58:47;;;;;;;;;6.67;5.00;;;;;17.18;38.86;69217.34;5027953;28;45538;-87
2023/04/20 16:01:12;;;;;;;;;5.00;5.00;;;;;17.21;38.91;69111.38;5030475;28;46371;-87
2023/04/20 16:03:38;;;;;;;;;5.33;4.00;;;;;16.94;39.47;68988.31;5028540;28;56251;-87
2023/04/20 16:08:31;;;;;;;;;6.00;4.33;;;;;16.18;38.58;68946.03;5027473;28;47129;-87
2023/04/20 16:10:56;;;;;;;;;7.00;5.33;;;;;16.01;39.01;69049.06;5029925;28;45570;-87
2023/04/20 16:14:17;;;;;;;;;5.00;5.00;;;;;17.13;38.81;69058.44;5001420;28;45533;-85
2023/04/20 16:16:43;;;;;;;;;6.67;5.00;;;;;16.12;39.11;69072.28;5027083;28;45612;-84
2023/04/20 16:20:01;;;;;;;;;5.00;4.00;;;;;15.83;39.02;68985.50;5027684;28;45712;-86
2023/04/20 16:25:33;;;;;;;;;3.33;3.33;;;;;17.11;39.01;69091.41;5050183;23;71525;-88
2023/04/20 16:27:58;;;;;;;;;8.00;6.00;;;;;15.76;38.97;68947.25;5024992;23;45530;-87
2023/04/20 16:30:28;;;;;;;;;4.67;4.67;;;;;15.78;39.12;68909.59;4994494;28;45555;-88
2023/04/20 16:33:01;;;;;;;;;6.00;6.00;;;;;16.40;38.85;69017.03;4994709;28;47076;-90
2023/04/20 16:35:29;;;;;;;;;9.00;5.00;;;;;15.65;39.12;68894.69;4996318;28;45772;-87
2023/04/20 16:37:55;;;;;;;;;5.00;3.33;;;;;16.29;38.97;69094.63;4992997;28;45511;-91
2023/04/20 16:40:32;;;;;;;;;4.00;3.00;;;;;16.32;39.01;69134.97;4997913;28;45370;-91
2023/04/20 16:43:41;;;;;;;;;6.00;4.00;;;;;16.91;39.05;69054.78;4998288;28;48840;-89
2023/04/20 16:46:11;;;;;;;;;5.67;5.00;;;;;16.33;39.20;68920.03;4999221;28;45450;-90
2023/04/20 16:48:37;;;;;;;;;2.33;2.33;;;;;15.50;39.03;68842.78;4997713;28;45528;-89
2023/04/20 16:51:02;;;;;;;;;4.00;4.00;;;;;15.96;39.03;68975.81;4988153;28;46050;-91
2023/04/20 16:53:29;;;;;;;;;4.67;4.67;;;;;16.74;39.32;68962.97;4979108;28;47311;-90
2023/04/20 16:55:55;;;;;;;;;5.00;3.00;;;;;15.60;38.91;68820.03;4981472;28;45961;-90
2023/04/20 16:58:20;;;;;;;;;4.67;3.67;;;;;16.59;39.25;69113.88;4997148;28;45413;-91
2023/04/20 17:01:11;;;;;;;;;4.33;4.33;;;;;16.64;39.29;69031.13;4997602;28;45488;-90
2023/04/20 17:03:37;;;;;;;;;5.67;5.33;;;;;16.61;39.59;68947.47;5010122;28;47757;-91
2023/04/20 17:06:11;;;;;;;;;4.00;4.00;;;;;16.06;39.32;68904.44;4996967;28;45573;-90
2023/04/20 17:08:46;;;;;;;;;1.00;1.00;;;;;15.27;39.61;68929.94;5006768;28;45514;-88
2023/04/20 17:11:12;;;;;;;;;5.00;5.00;;;;;16.29;39.03;68966.56;4999634;28;45609;-89
2023/04/20 17:13:38;;;;;;;;;5.00;5.00;;;;;15.50;39.54;68788.88;5005348;28;46193;-87
2023/04/20 17:16:04;;;;;;;;;5.00;5.00;;;;;15.82;39.57;68973.63;4996778;28;45825;-90
2023/04/20 17:18:32;;;;;;;;;7.33;4.00;;;;;15.30;39.65;68974.06;4997198;28;45553;-89
2023/04/20 17:24:32;;;;;;;;;4.67;4.67;;;;;15.99;39.85;68921.31;4975430;28;46312;-85
2023/04/20 17:26:57;;;;;;;;;6.00;5.33;;;;;16.40;39.47;68958.31;5011238;28;45423;-88
2023/04/20 17:29:23;;;;;;;;;5.67;5.00;;;;;15.80;39.38;68848.00;4980262;28;45449;-86
2023/04/20 17:31:48;;;;;;;;;5.00;5.00;;;;;16.36;39.29;68966.88;5016970;28;45605;-85
2023/04/20 17:34:14;;;;;;;;;4.67;4.00;;;;;16.13;39.23;68899.44;4996549;28;46501;-87
2023/04/20 17:36:39;;;;;;;;;7.67;5.00;;;;;16.35;39.70;68853.03;4986715;28;45468;-90
2023/04/20 17:39:05;;;;;;;;;4.33;4.33;;;;;16.34;39.72;68983.22;4978933;28;45563;-87
2023/04/20 17:41:30;;;;;;;;;6.33;5.00;;;;;16.33;39.97;68901.34;5000960;28;45514;-90